createdAt,value
2023-04-16T00:00:57.632Z,62.20
2023-04-16T00:06:12.593Z,62.40
2023-04-16T00:11:17.127Z,62.90
2023-04-16T00:16:20.719Z,63.60
2023-04-16T00:21:26.702Z,64.20
2023-04-16T00:26:30.484Z,64.30
2023-04-16T00:31:35.015Z,64.50
2023-04-16T00:36:39.877Z,65.00
2023-04-16T00:41:44.737Z,66.10
2023-04-16T00:46:48.244Z,66.00
2023-04-16T00:51:53.060Z,67.00
2023-04-16T00:56:58.284Z,66.80
2023-04-16T01:02:01.839Z,66.60
2023-04-16T01:07:07.216Z,66.90
2023-04-16T01:12:10.910Z,67.40
2023-04-16T01:17:14.342Z,68.00
2023-04-16T01:22:19.172Z,68.40
2023-04-16T01:27:22.586Z,68.30
2023-04-16T01:32:26.395Z,68.00
2023-04-16T01:37:32.151Z,67.90
2023-04-16T01:42:35.582Z,68.50
2023-04-16T01:47:39.141Z,68.60
2023-04-16T01:52:43.971Z,68.60
2023-04-16T01:57:47.399Z,68.80
2023-04-16T02:02:51.128Z,69.00
2023-04-16T02:07:56.035Z,69.00
2023-04-16T02:13:00.316Z,69.00
2023-04-16T02:18:04.421Z,69.00
2023-04-16T02:23:09.356Z,69.20
2023-04-16T02:28:14.137Z,69.40
2023-04-16T02:33:17.931Z,69.50
2023-04-16T02:38:22.651Z,70.10
2023-04-16T02:43:26.150Z,68.80
2023-04-16T02:48:29.626Z,69.90
2023-04-16T02:53:34.567Z,70.00
2023-04-16T02:58:38.313Z,69.90
2023-04-16T03:03:41.737Z,70.00
2023-04-16T03:08:46.511Z,70.30
2023-04-16T03:13:50.062Z,70.90
2023-04-16T03:18:53.571Z,71.40
2023-04-16T03:23:58.320Z,71.70
2023-04-16T03:29:05.421Z,71.60
2023-04-16T03:34:08.827Z,71.60
2023-04-16T03:39:13.640Z,72.00
2023-04-16T03:44:17.272Z,72.90
2023-04-16T03:49:20.933Z,71.80
2023-04-16T03:54:25.783Z,71.70
2023-04-16T03:59:29.612Z,72.10
2023-04-16T04:04:33.333Z,72.00
2023-04-16T04:09:38.125Z,72.40
2023-04-16T04:14:42.243Z,72.60
2023-04-16T04:19:59.929Z,72.60
2023-04-16T04:25:06.114Z,72.70
2023-04-16T04:30:11.089Z,72.80
2023-04-16T04:35:14.539Z,73.10
2023-04-16T04:40:22.064Z,73.20
2023-04-16T04:45:26.774Z,73.40
2023-04-16T04:50:30.665Z,73.60
2023-04-16T04:55:35.993Z,73.80
2023-04-16T05:00:39.499Z,73.90
2023-04-16T05:05:43.167Z,74.30
2023-04-16T05:10:47.959Z,74.40
2023-04-16T05:15:51.743Z,74.20
2023-04-16T05:20:55.930Z,73.80
2023-04-16T05:26:00.757Z,73.60
2023-04-16T05:31:04.239Z,73.50
2023-04-16T05:36:08.080Z,74.30
2023-04-16T05:41:12.801Z,74.10
2023-04-16T05:46:16.271Z,73.80
2023-04-16T05:51:20.163Z,74.20
2023-04-16T05:56:25.526Z,74.70
2023-04-16T06:01:29.199Z,74.80
2023-04-16T06:06:32.653Z,74.70
2023-04-16T06:11:37.744Z,75.50
2023-04-16T06:16:41.500Z,75.40
2023-04-16T06:21:44.972Z,75.60
2023-04-16T06:26:50.023Z,76.00
2023-04-16T06:31:53.883Z,75.70
2023-04-16T06:36:57.375Z,75.90
2023-04-16T06:42:02.389Z,75.50
2023-04-16T06:47:06.033Z,75.50
2023-04-16T06:52:09.829Z,75.10
2023-04-16T06:57:14.697Z,74.90
2023-04-16T07:02:19.956Z,75.00
2023-04-16T07:07:23.781Z,75.30
2023-04-16T07:12:28.672Z,75.50
2023-04-16T07:17:33.024Z,75.40
2023-04-16T07:22:36.541Z,76.30
2023-04-16T07:27:41.554Z,75.70
2023-04-16T07:32:45.067Z,75.50
2023-04-16T07:37:48.485Z,75.10
2023-04-16T07:42:53.511Z,75.00
2023-04-16T07:47:57.023Z,75.00
2023-04-16T07:53:00.527Z,74.50
2023-04-16T07:58:06.488Z,74.20
2023-04-16T08:03:10.062Z,74.10
2023-04-16T08:08:13.700Z,74.40
2023-04-16T08:13:18.394Z,74.60
2023-04-16T08:18:21.861Z,73.50
2023-04-16T08:23:25.311Z,73.50
2023-04-16T08:28:30.136Z,72.80
2023-04-16T08:33:33.599Z,73.00
2023-04-16T08:38:37.098Z,72.40
2023-04-16T08:43:46.190Z,72.50
2023-04-16T08:48:51.727Z,70.80
2023-04-16T08:54:00.814Z,70.90
2023-04-16T08:59:06.377Z,69.90
2023-04-16T09:04:10.846Z,70.20
2023-04-16T09:09:15.831Z,69.80
2023-04-16T09:14:20.993Z,68.50
2023-04-16T09:19:24.947Z,68.20
2023-04-16T09:24:29.714Z,65.60
2023-04-16T09:29:38.868Z,66.20
2023-04-16T09:34:56.693Z,65.40
2023-04-16T09:40:01.952Z,63.50
2023-04-16T10:55:03.799Z,62.40
2023-04-16T11:00:23.978Z,59.10
2023-04-16T11:05:46.897Z,57.60
2023-04-16T11:10:53.010Z,54.30
2023-04-16T11:15:59.039Z,56.20
2023-04-16T11:21:02.703Z,56.90
2023-04-16T11:26:20.871Z,53.20
2023-04-16T11:31:27.313Z,49.20
2023-04-16T11:36:44.185Z,49.00
2023-04-16T11:41:50.533Z,46.20
2023-04-16T11:46:55.064Z,45.10
2023-04-16T11:51:59.168Z,45.10
2023-04-16T11:57:05.037Z,43.30
2023-04-16T12:02:08.588Z,44.00
2023-04-16T12:07:13.889Z,42.00
2023-04-16T12:12:30.702Z,42.60
2023-04-16T12:17:35.618Z,41.90
2023-04-16T12:22:40.121Z,41.10
2023-04-16T12:27:48.015Z,42.70
2023-04-16T12:32:56.055Z,43.80
2023-04-16T12:38:01.098Z,44.30
2023-04-16T12:43:06.220Z,43.70
2023-04-16T12:48:09.698Z,38.60
2023-04-16T12:53:13.264Z,42.70
2023-04-16T12:58:18.291Z,42.60
2023-04-16T13:03:22.083Z,42.00
2023-04-16T13:08:25.760Z,43.80
2023-04-16T13:13:30.974Z,42.60
2023-04-16T13:18:34.695Z,41.50
2023-04-16T13:23:38.104Z,42.60
2023-04-16T13:28:43.210Z,42.00
2023-04-16T13:33:46.684Z,42.30
2023-04-16T13:38:50.579Z,43.20
2023-04-16T13:43:55.482Z,42.90
2023-04-16T13:48:58.897Z,43.70
2023-04-16T13:54:02.337Z,44.50
2023-04-16T13:59:07.494Z,43.90
2023-04-16T14:04:11.302Z,43.00
2023-04-16T14:09:14.689Z,42.40
2023-04-16T14:14:19.422Z,43.40
2023-04-16T14:19:23.144Z,44.30
2023-04-16T14:24:26.801Z,44.50
2023-04-16T14:29:32.418Z,44.40
2023-04-16T14:34:35.901Z,44.70
2023-04-16T14:39:39.663Z,44.70
2023-04-16T14:44:44.377Z,44.50
2023-04-16T14:49:47.785Z,44.60
2023-04-16T14:54:52.268Z,44.80
2023-04-16T14:59:57.053Z,44.90
2023-04-16T15:05:01.427Z,45.40
2023-04-16T15:10:05.541Z,45.40
2023-04-16T15:15:11.693Z,45.40
2023-04-16T15:20:15.969Z,45.60
2023-04-16T15:25:19.580Z,45.20
2023-04-16T15:30:25.148Z,44.90
2023-04-16T15:35:29.072Z,44.80
2023-04-16T15:40:32.536Z,44.50
2023-04-16T15:45:37.553Z,44.40
2023-04-16T15:50:41.081Z,43.10
2023-04-16T15:55:44.558Z,43.10
2023-04-16T16:00:50.312Z,41.60
2023-04-16T16:05:54.069Z,39.10
2023-04-16T16:10:57.509Z,40.40
2023-04-16T16:16:03.397Z,41.30
2023-04-16T16:21:07.130Z,41.90
2023-04-16T16:26:10.565Z,42.00
2023-04-16T16:31:15.810Z,42.20
2023-04-16T16:36:19.474Z,43.30
2023-04-16T16:41:23.811Z,43.70
2023-04-16T16:46:28.909Z,44.20
2023-04-16T16:51:33.637Z,44.90
2023-04-16T16:56:37.663Z,45.10
2023-04-16T17:01:42.581Z,46.90
2023-04-16T17:06:46.116Z,47.50
2023-04-16T17:11:49.613Z,47.90
2023-04-16T17:16:57.027Z,48.40
2023-04-16T17:22:00.739Z,48.80
2023-04-16T17:27:04.614Z,49.80
2023-04-16T17:32:09.730Z,51.40
2023-04-16T17:37:14.106Z,53.20
2023-04-16T17:42:17.637Z,54.40
2023-04-16T17:47:22.475Z,56.10
2023-04-16T17:52:26.037Z,57.20
2023-04-16T17:57:29.739Z,57.80
2023-04-16T18:02:34.654Z,58.40
2023-04-16T18:07:39.053Z,58.80
2023-04-16T18:12:42.467Z,59.50
2023-04-16T18:17:47.295Z,60.50
2023-04-16T18:22:50.720Z,60.90
2023-04-16T18:27:54.414Z,61.50
2023-04-16T18:33:33.539Z,63.40
2023-04-16T18:38:23.150Z,64.20
2023-04-16T18:43:26.630Z,65.40
2023-04-16T18:48:31.780Z,66.70
2023-04-16T18:53:35.684Z,67.50
2023-04-16T18:58:39.089Z,67.60
2023-04-16T19:03:47.471Z,67.70
2023-04-16T19:08:51.076Z,68.10
2023-04-16T19:13:54.941Z,68.40
2023-04-16T19:19:00.048Z,68.70
2023-04-16T19:24:03.637Z,68.60
2023-04-16T19:29:07.298Z,68.20
2023-04-16T19:34:12.102Z,68.00
2023-04-16T19:39:15.660Z,67.80
2023-04-16T19:44:19.476Z,67.70
2023-04-16T19:49:25.254Z,67.20
2023-04-16T19:54:28.768Z,67.20
2023-04-16T19:59:32.679Z,67.20
2023-04-16T20:04:37.663Z,67.10
2023-04-16T20:09:41.193Z,67.20
2023-04-16T20:14:44.913Z,67.30
2023-04-16T20:19:51.225Z,67.50
2023-04-16T20:24:55.176Z,67.70
2023-04-16T20:29:58.708Z,67.90
2023-04-16T20:35:10.192Z,69.10
2023-04-16T20:40:14.971Z,68.10
2023-04-16T20:45:18.604Z,68.30
2023-04-16T20:50:24.657Z,68.30
2023-04-16T20:55:28.161Z,68.00
2023-04-16T21:00:31.567Z,67.80
2023-04-16T21:05:36.987Z,67.90
2023-04-16T21:10:41.875Z,67.80
2023-04-16T21:15:46.073Z,68.00
2023-04-16T21:20:51.256Z,68.00
2023-04-16T21:25:56.543Z,67.90
2023-04-16T21:31:00.017Z,68.00
2023-04-16T21:36:05.101Z,68.20
2023-04-16T21:41:08.481Z,68.20
2023-04-16T21:46:12.363Z,68.10
2023-04-16T21:51:18.219Z,68.10
2023-04-16T21:56:21.656Z,68.20
2023-04-16T22:01:25.134Z,68.20
2023-04-16T22:06:30.036Z,68.40
2023-04-16T22:11:33.440Z,68.40
2023-04-16T22:16:36.989Z,68.70
2023-04-16T22:21:42.325Z,69.30
2023-04-16T22:26:45.997Z,69.90
2023-04-16T22:31:49.451Z,70.70
2023-04-16T22:36:54.284Z,71.60
2023-04-16T22:41:57.700Z,71.70
2023-04-16T22:47:01.077Z,71.60
2023-04-16T22:52:06.170Z,71.60
2023-04-16T22:57:09.630Z,71.90
2023-04-16T23:02:13.189Z,71.50
2023-04-16T23:07:18.020Z,71.60
2023-04-16T23:12:21.483Z,71.80
2023-04-16T23:17:25.221Z,71.80
2023-04-16T23:22:30.536Z,71.80
2023-04-16T23:27:34.024Z,71.90
2023-04-16T23:32:37.455Z,72.30
2023-04-16T23:37:42.656Z,73.00
2023-04-16T23:42:46.165Z,74.20
2023-04-16T23:47:50.824Z,74.60
2023-04-16T23:52:55.649Z,74.90
2023-04-16T23:57:59.019Z,74.90
